Aeroporto :
LOGIN :

Iscrizione | Disclaimer

   EN    FR    IT 

 










Sommario :    VFR   VFR Marginale   IFR   IFR Intensivo   IFR Molto Intensivo
Visibilità : 
Base nubi : 
>= 8 km
>= 3000ft
5 / 8 km
1000 / 3000 ft
1500m / 5 km
500 / 1000 ft
800 / 1500m
200 / 500 ft
< 800m
< 200 ft
Simboli :   Temporali  Nebbia  Neve Forte  Precipitazioni Forti  Vento > 20 kt
SIGMETs :   Varie  Temporali  Ghiacco  Turbolenza  Onda orograficha  Ceneri Vulcaniche






- Altitudine del aeroporto : 1115 ft
- Codice IATA : GRZ


LOWG - Graz

ULTIMO METAR :
  • 260450Z AUTO 31006KT 280V340 9999 -SHRA FEW060 BKN070 13/12 Q1018 TEMPO SHRA

METARs OBSOLETI :
  • 260420Z AUTO 29005KT 250V320 9999 -SHRA FEW060 BKN070 13/12 Q1018 TEMPO SHRA
  • 260350Z AUTO 35008KT 9999 -SHRA FEW050 BKN070 13/12 Q1018 RESHRA TEMPO SHRA
  • 260320Z AUTO 34007KT 9999 SHRA FEW048 OVC060 13/12 Q1019
  • 260250Z AUTO 35008KT 9999 -SHRA FEW050 BKN070 13/13 Q1019
  • 260220Z AUTO 35005KT 9999 -RA VCTS //////CB FEW050 BKN070 13/12 Q1019
  • 260150Z AUTO 02004KT 340V100 9999 -SHRA //////CB FEW048 BKN070 13/13 Q1019 RESHRA
  • 260120Z AUTO 07007KT 9999 -SHRA //////CB FEW050 BKN070 14/13 Q1018 RESHRA RETS
  • 260050Z AUTO 14003KT 090V160 9999 -RA VCTS //////CB FEW046 BKN080 13/12 Q1018 RETS
  • 260020Z AUTO VRB01KT 9999 -TSRA //////CB FEW050 BKN080 13/12 Q1018 RESHRA
  • 252350Z AUTO 31004KT 260V350 9999 -SHRA //////CB FEW060 SCT070 BKN080 13/12 Q1018

TAF TAF LOWG
Valido dal 26 a 00 ore il 27 a 00 ore UTC


252315Z 2600/2624 VRB04KT 9999 FEW050 TX19/2613Z TN12/2624Z
TEMPO 2600/2608 30008KT 4000 TSRA BKN030 FEW040CB
PROB30
TEMPO 2600/2607 2000 +TSRA BKN010 BKN030CB
TEMPO 2608/2612 -SHRA
TEMPO 2612/2618 FEW040CB SCT050
PROB40
TEMPO 2613/2616 30008KT 4000 TSRA



MetMap, La meteo Aeronautica in un colpo d'occhio ! - Copyright ORBIFLY Dicembre 2007 - Disclaimer

ORBIFLY MET'MAP TEAM :

Programmazione e sviluppo : Alexandra Zaïnal
Concezione : Baudouin d'Aumeries
Supporto tecnico e logistico : Manuel Goepfert
Aiuto : Marc-Olivier Méhu
Aiuto per la traduzione : Arnaldo La Scala




FONTI E CREDITI :

   NOAA